»·PEaware :: JBU135 KLAS-KRNO

JBU135 :: KLAS-KRNO

FLIGHT INFORMATION

Flight Status: Arrived
Operator:
JetBlue Airways
More flights by this operator :: More flights under this callsign
Pilot: Max W. (2591)
Aircraft: AIRBUS A320
(A320)
More flights by this aircraft type
Origin: KLAS McCarran Intl
United States
Destination: KRNO Reno/Tahoe Intl
United States
More flights between these airports :: More routes between these airports
Route: SHEAD1 KENNO KENNO2
File this flight plan on PilotEdge
Remarks:
Altitude:
(Current/Filed)
32,000ft
Speed:
(Current/Filed)
400kts
Departed: 26-Nov-17 05:41 PM
Arrived: 26-Nov-17 06:39 PM
Distance/Time
Traveled:
300nm/0:57
Distance/Time
To Go:
Arrived

Flight Plot

Page will automatically refresh every two minutes.

Flight plan parsing failed; only flown route is shown


Map Options




Map Legend


Flown Route
Filed Route
Departure Airport
Arrival Airport
Navaid (VOR, NDB)
Fix

Horizontal Profiles

Position Reports

Time Latitude Longitude Heading Altitude Ground
Speed
26-Nov-17 17:21 36.080723 -115.138812 315 2121ft 0kts
26-Nov-17 17:22 36.080723 -115.138812 315 2121ft 0kts
26-Nov-17 17:23 36.080723 -115.138812 315 2121ft 0kts
26-Nov-17 17:24 36.080723 -115.138812 315 2121ft 0kts
26-Nov-17 17:25 36.080723 -115.138812 315 2121ft 0kts
26-Nov-17 17:26 36.080723 -115.138812 315 2121ft 0kts
26-Nov-17 17:27 36.080723 -115.138812 315 2121ft 0kts
26-Nov-17 17:28 36.080723 -115.138812 315 2121ft 0kts
26-Nov-17 17:29 36.080723 -115.138812 315 2121ft 0kts
26-Nov-17 17:30 36.080723 -115.138812 315 2121ft 0kts
26-Nov-17 17:31 36.080723 -115.138812 315 2121ft 0kts
26-Nov-17 17:32 36.080723 -115.138812 315 2121ft 0kts
26-Nov-17 17:33 36.080723 -115.138812 315 2121ft 0kts
26-Nov-17 17:34 36.080717 -115.138804 317 2121ft 0kts
26-Nov-17 17:35 36.080722 -115.138808 321 2121ft 0kts
26-Nov-17 17:36 36.079176 -115.136319 129 2121ft 10kts
26-Nov-17 17:37 36.079082 -115.136184 131 2121ft 0kts
26-Nov-17 17:38 36.078982 -115.136047 132 2121ft 0kts
26-Nov-17 17:39 36.078982 -115.136047 132 2121ft 0kts
26-Nov-17 17:40 36.078982 -115.136047 132 2121ft 0kts
26-Nov-17 17:41 36.078982 -115.136047 132 2121ft 0kts
26-Nov-17 17:42 36.078270 -115.133385 89 2121ft 26kts
26-Nov-17 17:43 36.078245 -115.122977 103 2121ft 19kts
26-Nov-17 17:44 36.077513 -115.121545 135 2121ft 0kts
26-Nov-17 17:45 36.076484 -115.122181 260 2121ft 33kts
26-Nov-17 17:46 36.076678 -115.173944 270 4586ft 201kts
26-Nov-17 17:47 36.066287 -115.251894 227 6963ft 281kts
26-Nov-17 17:48 35.995647 -115.290828 200 7034ft 281kts
26-Nov-17 17:49 35.933620 -115.347435 224 8396ft 289kts
26-Nov-17 17:50 35.886942 -115.418267 262 9082ft 288kts
26-Nov-17 17:51 35.887830 -115.508943 268 10965ft 308kts
26-Nov-17 17:52 35.889899 -115.617302 267 11019ft 319kts
26-Nov-17 17:53 35.891547 -115.710435 266 12082ft 323kts
26-Nov-17 17:54 35.893429 -115.822891 265 15501ft 334kts
26-Nov-17 17:55 35.895577 -115.938487 269 18619ft 348kts
26-Nov-17 17:56 35.956349 -116.040612 308 21116ft 401kts
26-Nov-17 17:57 36.039454 -116.136302 308 23414ft 416kts
26-Nov-17 17:58 36.118927 -116.228093 308 25363ft 428kts
26-Nov-17 17:59 36.205623 -116.328492 308 27238ft 437kts
26-Nov-17 18:00 36.294948 -116.432261 308 28925ft 447kts
26-Nov-17 18:01 36.385978 -116.538361 308 30437ft 455kts
26-Nov-17 18:02 36.477829 -116.645749 307 31970ft 455kts
26-Nov-17 18:03 36.556440 -116.737530 310 32079ft 455kts
26-Nov-17 18:04 36.665186 -116.824656 319 32083ft 469kts
26-Nov-17 18:05 36.776027 -116.909042 319 32083ft 469kts
26-Nov-17 18:06 36.887248 -116.993964 319 32083ft 469kts
26-Nov-17 18:07 36.998020 -117.078818 319 32084ft 469kts
26-Nov-17 18:08 37.105214 -117.161209 319 32142ft 469kts
26-Nov-17 18:09 37.195021 -117.230443 319 32137ft 468kts
26-Nov-17 18:10 37.303936 -117.317088 311 32079ft 461kts
26-Nov-17 18:11 37.401082 -117.420241 309 32092ft 459kts
26-Nov-17 18:12 37.498544 -117.522604 314 32123ft 468kts
26-Nov-17 18:13 37.609018 -117.610711 314 32104ft 475kts
26-Nov-17 18:14 37.689313 -117.674421 313 32068ft 482kts
26-Nov-17 18:15 37.800088 -117.762487 313 32151ft 485kts
26-Nov-17 18:16 37.913741 -117.853206 313 32164ft 485kts
26-Nov-17 18:17 38.027306 -117.944256 313 32141ft 484kts
26-Nov-17 18:18 38.124445 -118.022349 313 32113ft 483kts
26-Nov-17 18:19 38.210368 -118.091635 313 32088ft 481kts
26-Nov-17 18:20 38.322658 -118.182487 313 32076ft 481kts
26-Nov-17 18:21 38.430967 -118.276664 302 32123ft 462kts
26-Nov-17 18:22 38.522584 -118.389642 301 31998ft 459kts
26-Nov-17 18:23 38.613476 -118.502106 301 32009ft 459kts
26-Nov-17 18:24 38.703855 -118.614219 301 30329ft 452kts
26-Nov-17 18:25 38.759394 -118.683220 301 27565ft 431kts
26-Nov-17 18:26 38.838182 -118.781467 302 25237ft 411kts
26-Nov-17 18:27 38.918731 -118.882086 303 23138ft 404kts
26-Nov-17 18:28 38.997899 -118.981296 303 21059ft 395kts
26-Nov-17 18:29 39.074616 -119.077751 304 19053ft 382kts
26-Nov-17 18:30 39.145596 -119.167255 305 17223ft 368kts
26-Nov-17 18:31 39.215630 -119.255791 305 15194ft 359kts
26-Nov-17 18:32 39.285291 -119.343901 306 12843ft 348kts
26-Nov-17 18:33 39.349526 -119.425081 307 12008ft 302kts
26-Nov-17 18:34 39.416295 -119.488604 320 10560ft 297kts
26-Nov-17 18:35 39.483286 -119.548649 336 10025ft 279kts
26-Nov-17 18:36 39.557210 -119.571049 344 10009ft 254kts
26-Nov-17 18:37 39.618952 -119.604982 290 9076ft 227kts
26-Nov-17 18:38 39.634063 -119.666063 269 8948ft 190kts
26-Nov-17 18:39 39.633272 -119.691340 252 8357ft 182kts
26-Nov-17 18:40 39.624284 -119.735984 246 6998ft 176kts
26-Nov-17 18:41 39.583277 -119.762665 192 6049ft 179kts
26-Nov-17 18:42 39.544975 -119.768119 187 5157ft 128kts
26-Nov-17 18:43 39.510917 -119.769207 184 4437ft 118kts
26-Nov-17 18:44 39.503014 -119.770427 292 4418ft 0kts
26-Nov-17 18:45 39.505401 -119.771581 343 4418ft 17kts
26-Nov-17 18:46 39.505296 -119.772764 226 4418ft 0kts
26-Nov-17 18:47 39.505296 -119.772764 226 4418ft 0kts
26-Nov-17 18:48 39.505296 -119.772764 226 4418ft 0kts

Navigation Log

Ident Type
Flight plan parsing failed, navigation log unavailable